Time;durP1;ratioP1;P1;durP2;ratioP2;P2;SDS_P1;SDS_P2;PMS_P1;PMS_P2;Temp;Humidity;BMP_temperature;BMP_pressure;BME280_temperature;BME280_humidity;BME280_pressure;Samples;Min_cycle;Max_cycle;Signal;HPM_P1;HPM_P2
2022/03/02 00:01:39;;;;;;;37.00;27.67;;;;;;;;;;4972169;28;20404;-74
2022/03/02 00:04:05;;;;;;;35.38;27.42;;;;;;;;;;4987875;28;20515;-74
2022/03/02 00:06:31;;;;;;;36.75;27.17;;;;;;;;;;5006250;28;20395;-74
2022/03/02 00:08:58;;;;;;;36.58;28.40;;;;;;;;;;4975821;28;20424;-74
2022/03/02 00:11:24;;;;;;;38.00;28.30;;;;;;;;;;4992088;28;20495;-74
2022/03/02 00:13:50;;;;;;;37.33;28.52;;;;;;;;;;4998741;28;20392;-74
2022/03/02 00:16:19;;;;;;;35.65;28.63;;;;;;;;;;4990429;28;20045;-74
2022/03/02 00:18:45;;;;;;;40.78;30.23;;;;;;;;;;4972179;28;20048;-74
2022/03/02 00:21:11;;;;;;;37.72;28.15;;;;;;;;;;4991153;28;20121;-74
2022/03/02 00:23:37;;;;;;;37.13;28.52;;;;;;;;;;4988636;28;20459;-74
2022/03/02 00:26:03;;;;;;;33.72;27.98;;;;;;;;;;4992615;28;20045;-74
2022/03/02 00:28:29;;;;;;;38.88;29.33;;;;;;;;;;4990237;28;20116;-74
2022/03/02 00:30:55;;;;;;;36.97;29.02;;;;;;;;;;4990464;28;20408;-74
2022/03/02 00:33:22;;;;;;;41.20;30.08;;;;;;;;;;4990319;28;20038;-74
2022/03/02 00:35:48;;;;;;;37.80;29.80;;;;;;;;;;4992372;28;20036;-74
2022/03/02 00:38:14;;;;;;;41.40;29.98;;;;;;;;;;4994626;28;20040;-74
2022/03/02 00:40:41;;;;;;;37.33;28.98;;;;;;;;;;4984064;28;20496;-74
2022/03/02 00:43:09;;;;;;;39.60;30.38;;;;;;;;;;4980148;28;20558;-74
2022/03/02 00:45:36;;;;;;;35.30;28.48;;;;;;;;;;4984616;28;20085;-74
2022/03/02 00:48:03;;;;;;;39.25;28.67;;;;;;;;;;4987458;28;20045;-74
2022/03/02 00:50:31;;;;;;;37.80;29.10;;;;;;;;;;4983014;28;20042;-74
2022/03/02 00:52:57;;;;;;;36.13;28.38;;;;;;;;;;4985987;28;20034;-74
2022/03/02 00:55:23;;;;;;;37.35;29.05;;;;;;;;;;4987994;28;20182;-74
2022/03/02 00:57:49;;;;;;;38.53;29.05;;;;;;;;;;4991762;28;20038;-74
2022/03/02 01:00:16;;;;;;;39.45;29.48;;;;;;;;;;4995783;28;20045;-74
2022/03/02 01:02:43;;;;;;;37.67;27.70;;;;;;;;;;4986166;28;20089;-74
2022/03/02 01:05:09;;;;;;;37.65;28.67;;;;;;;;;;4992582;28;20053;-75
2022/03/02 01:07:36;;;;;;;37.50;28.10;;;;;;;;;;4989855;28;20079;-75
2022/03/02 01:10:03;;;;;;;33.72;27.60;;;;;;;;;;4983030;28;20113;-74
2022/03/02 01:12:29;;;;;;;41.42;28.98;;;;;;;;;;4984280;28;20121;-74
2022/03/02 01:14:55;;;;;;;37.75;28.30;;;;;;;;;;4988989;28;20038;-74
2022/03/02 01:17:21;;;;;;;38.55;28.35;;;;;;;;;;4983711;28;20033;-74
2022/03/02 01:19:48;;;;;;;41.95;28.40;;;;;;;;;;4988010;28;20050;-74
2022/03/02 01:22:14;;;;;;;39.42;28.45;;;;;;;;;;4974418;28;20045;-74
2022/03/02 01:24:40;;;;;;;37.60;27.98;;;;;;;;;;4989209;28;20041;-74
2022/03/02 01:27:06;;;;;;;38.92;27.90;;;;;;;;;;4991199;28;20100;-74
2022/03/02 01:29:34;;;;;;;41.72;29.05;;;;;;;;;;4986853;28;20091;-74
2022/03/02 01:32:05;;;;;;;39.90;28.95;;;;;;;;;;4991134;28;20088;-74
2022/03/02 01:34:31;;;;;;;39.13;29.75;;;;;;;;;;4974866;28;20029;-75
2022/03/02 01:36:57;;;;;;;40.83;30.15;;;;;;;;;;4987317;28;20484;-75
2022/03/02 01:39:23;;;;;;;41.80;31.05;;;;;;;;;;4980454;28;20065;-74
2022/03/02 01:41:50;;;;;;;40.80;29.17;;;;;;;;;;4983565;28;20038;-74
2022/03/02 01:44:16;;;;;;;43.70;30.70;;;;;;;;;;4980123;28;20118;-74
2022/03/02 01:46:42;;;;;;;42.63;30.77;;;;;;;;;;4983645;28;20092;-74
2022/03/02 01:49:08;;;;;;;42.88;29.52;;;;;;;;;;4981275;28;20073;-74
2022/03/02 01:51:34;;;;;;;44.17;30.17;;;;;;;;;;4990257;28;20119;-74
2022/03/02 01:54:00;;;;;;;42.13;29.80;;;;;;;;;;4975296;28;20073;-74
2022/03/02 01:56:27;;;;;;;40.47;29.98;;;;;;;;;;4988188;28;20049;-74
2022/03/02 01:58:53;;;;;;;42.00;29.70;;;;;;;;;;4990295;28;20203;-74
2022/03/02 02:01:19;;;;;;;44.10;30.92;;;;;;;;;;4979351;28;20073;-74
2022/03/02 02:03:45;;;;;;;42.53;30.25;;;;;;;;;;4987048;28;20038;-74
2022/03/02 02:06:13;;;;;;;40.38;29.95;;;;;;;;;;4991936;28;20080;-74
2022/03/02 02:08:39;;;;;;;39.40;30.20;;;;;;;;;;4986595;28;20058;-74
2022/03/02 02:11:05;;;;;;;42.33;30.15;;;;;;;;;;4988682;28;20034;-74
2022/03/02 02:13:33;;;;;;;44.90;30.85;;;;;;;;;;4966541;28;20038;-74
2022/03/02 02:16:00;;;;;;;40.92;29.40;;;;;;;;;;4982175;28;20042;-74
2022/03/02 02:18:27;;;;;;;42.75;30.58;;;;;;;;;;4988629;28;20472;-74
2022/03/02 02:20:54;;;;;;;39.58;29.13;;;;;;;;;;4982421;28;20377;-74
2022/03/02 02:23:20;;;;;;;40.33;29.95;;;;;;;;;;4987537;28;20044;-74
2022/03/02 02:25:46;;;;;;;42.13;29.58;;;;;;;;;;4987318;28;20049;-74
2022/03/02 02:28:13;;;;;;;39.47;29.33;;;;;;;;;;4983609;28;20129;-74
2022/03/02 02:30:40;;;;;;;40.58;30.35;;;;;;;;;;5026625;23;20042;-74
2022/03/02 02:33:06;;;;;;;39.38;29.38;;;;;;;;;;4987078;28;20091;-74
2022/03/02 02:35:33;;;;;;;43.47;31.27;;;;;;;;;;4990957;28;20042;-74
2022/03/02 02:37:59;;;;;;;41.80;30.23;;;;;;;;;;5009905;28;20048;-74
2022/03/02 02:40:27;;;;;;;41.20;30.85;;;;;;;;;;4990813;28;20066;-74
2022/03/02 02:42:53;;;;;;;42.35;30.70;;;;;;;;;;4987338;28;20049;-74
2022/03/02 02:45:21;;;;;;;41.60;30.35;;;;;;;;;;4986188;28;20100;-74
2022/03/02 02:47:49;;;;;;;41.63;31.10;;;;;;;;;;4996812;28;20125;-74
2022/03/02 02:50:16;;;;;;;42.13;32.03;;;;;;;;;;4989340;28;20052;-74
2022/03/02 02:52:42;;;;;;;42.03;31.70;;;;;;;;;;4983921;28;20042;-74
2022/03/02 02:55:09;;;;;;;43.35;31.65;;;;;;;;;;4981928;28;20034;-74
2022/03/02 02:57:35;;;;;;;43.25;32.25;;;;;;;;;;4979879;28;20061;-74
2022/03/02 03:00:01;;;;;;;45.42;31.65;;;;;;;;;;4982609;28;20038;-74
2022/03/02 03:02:27;;;;;;;45.47;32.10;;;;;;;;;;4998236;28;20050;-74
2022/03/02 03:04:53;;;;;;;46.58;32.30;;;;;;;;;;4999856;28;20048;-74
2022/03/02 03:07:19;;;;;;;46.67;32.47;;;;;;;;;;4985208;28;20120;-74
2022/03/02 03:09:45;;;;;;;45.35;33.08;;;;;;;;;;4987328;28;20034;-74
2022/03/02 03:12:11;;;;;;;44.78;32.50;;;;;;;;;;4986305;28;20043;-74
2022/03/02 03:14:38;;;;;;;44.58;32.10;;;;;;;;;;4960279;28;20038;-74
2022/03/02 03:17:04;;;;;;;47.17;33.05;;;;;;;;;;4989996;28;20038;-74
2022/03/02 03:19:30;;;;;;;47.65;32.90;;;;;;;;;;4986968;28;20137;-74
2022/03/02 03:22:02;;;;;;;47.35;32.67;;;;;;;;;;4988429;28;20043;-74
2022/03/02 03:24:28;;;;;;;46.90;32.42;;;;;;;;;;4989575;28;20040;-74
2022/03/02 03:26:54;;;;;;;41.70;32.00;;;;;;;;;;4988242;28;20041;-74
2022/03/02 03:29:20;;;;;;;45.78;32.00;;;;;;;;;;4988083;28;20069;-74
2022/03/02 03:31:46;;;;;;;43.92;32.78;;;;;;;;;;4982616;28;20034;-74
2022/03/02 03:34:12;;;;;;;45.42;31.60;;;;;;;;;;4983009;28;20137;-74
2022/03/02 03:36:38;;;;;;;44.83;31.67;;;;;;;;;;4999292;28;20038;-74
2022/03/02 03:39:05;;;;;;;44.10;32.05;;;;;;;;;;4982999;28;20540;-75
2022/03/02 03:41:31;;;;;;;45.80;33.15;;;;;;;;;;5001379;28;20091;-74
2022/03/02 03:43:57;;;;;;;44.45;32.35;;;;;;;;;;5001851;28;20045;-74
2022/03/02 03:46:23;;;;;;;48.75;32.38;;;;;;;;;;4984194;28;20041;-74
2022/03/02 03:48:50;;;;;;;47.80;32.58;;;;;;;;;;4988479;28;20065;-74
2022/03/02 03:51:16;;;;;;;49.25;32.97;;;;;;;;;;4978973;28;20042;-74
2022/03/02 03:53:42;;;;;;;46.78;33.65;;;;;;;;;;4973040;28;20104;-74
2022/03/02 03:56:08;;;;;;;48.35;31.95;;;;;;;;;;4975247;28;20038;-74
2022/03/02 03:58:34;;;;;;;49.72;33.60;;;;;;;;;;4974354;28;20041;-74
2022/03/02 04:01:00;;;;;;;44.45;32.53;;;;;;;;;;4977262;28;20093;-71
2022/03/02 04:03:26;;;;;;;47.95;33.13;;;;;;;;;;4985203;28;20038;-73
2022/03/02 04:05:53;;;;;;;48.47;34.25;;;;;;;;;;4973989;28;20050;-74
2022/03/02 04:08:19;;;;;;;50.45;33.75;;;;;;;;;;4972997;28;20085;-74
2022/03/02 04:10:45;;;;;;;48.22;33.92;;;;;;;;;;4986849;28;20042;-74
2022/03/02 04:13:12;;;;;;;49.42;34.65;;;;;;;;;;4974589;28;20054;-74
2022/03/02 04:15:38;;;;;;;47.47;33.08;;;;;;;;;;4983417;28;20051;-74
2022/03/02 04:18:06;;;;;;;45.80;33.42;;;;;;;;;;4983878;28;20046;-74
2022/03/02 04:20:33;;;;;;;47.08;33.28;;;;;;;;;;4985230;28;20073;-74
2022/03/02 04:22:59;;;;;;;46.92;33.47;;;;;;;;;;4985942;28;20136;-74
2022/03/02 04:25:25;;;;;;;50.65;34.72;;;;;;;;;;4983374;28;20049;-74
2022/03/02 04:27:51;;;;;;;48.00;34.05;;;;;;;;;;4989901;28;20116;-74
2022/03/02 04:30:17;;;;;;;51.20;34.63;;;;;;;;;;4984528;28;20037;-74
2022/03/02 04:32:43;;;;;;;47.13;32.83;;;;;;;;;;4983019;28;20041;-74
2022/03/02 04:35:10;;;;;;;45.70;32.15;;;;;;;;;;4982002;28;20044;-74
2022/03/02 04:37:37;;;;;;;49.85;33.53;;;;;;;;;;4987672;28;20045;-74
2022/03/02 04:40:04;;;;;;;49.30;33.58;;;;;;;;;;4983580;28;20074;-74
2022/03/02 04:42:30;;;;;;;48.63;34.17;;;;;;;;;;4996683;28;20052;-74
2022/03/02 04:44:56;;;;;;;49.70;34.47;;;;;;;;;;4980111;28;20124;-74
2022/03/02 04:47:22;;;;;;;47.92;34.85;;;;;;;;;;4981563;28;20161;-74
2022/03/02 04:49:48;;;;;;;51.63;34.80;;;;;;;;;;4981846;28;20045;-74
2022/03/02 04:52:14;;;;;;;48.05;34.78;;;;;;;;;;4979037;28;20044;-72
2022/03/02 04:57:26;;;;;;;51.42;34.35;;;;;;;;;;4986782;28;20468;-73
2022/03/02 04:59:52;;;;;;;48.88;34.22;;;;;;;;;;4967312;28;20037;-72
2022/03/02 05:02:18;;;;;;;46.92;32.88;;;;;;;;;;4963979;28;20052;-72
2022/03/02 05:04:44;;;;;;;50.38;33.88;;;;;;;;;;4999804;28;20038;-73
2022/03/02 05:07:10;;;;;;;50.53;35.33;;;;;;;;;;4985945;28;20034;-73
2022/03/02 05:09:36;;;;;;;47.92;34.92;;;;;;;;;;5002980;28;20034;-73
2022/03/02 05:12:03;;;;;;;47.95;33.00;;;;;;;;;;4967418;28;20421;-72
2022/03/02 05:14:29;;;;;;;51.10;34.47;;;;;;;;;;4960976;28;20041;-75
2022/03/02 05:16:56;;;;;;;45.78;32.80;;;;;;;;;;4972633;28;20042;-72
2022/03/02 05:19:22;;;;;;;50.30;34.92;;;;;;;;;;4983163;28;20061;-72
2022/03/02 05:21:48;;;;;;;49.60;34.60;;;;;;;;;;4981046;28;20051;-75
2022/03/02 05:24:15;;;;;;;47.50;34.33;;;;;;;;;;5001940;28;20037;-74
2022/03/02 05:26:41;;;;;;;52.42;37.05;;;;;;;;;;5000487;28;20045;-74
2022/03/02 05:29:07;;;;;;;50.50;35.13;;;;;;;;;;4984322;28;20484;-74
2022/03/02 05:31:34;;;;;;;54.85;37.03;;;;;;;;;;4987536;28;20084;-74
2022/03/02 05:34:00;;;;;;;53.35;37.10;;;;;;;;;;4987041;28;20045;-73
2022/03/02 05:36:26;;;;;;;52.65;36.53;;;;;;;;;;4977711;28;20053;-73
2022/03/02 05:38:53;;;;;;;53.28;36.90;;;;;;;;;;4985461;28;20069;-73
2022/03/02 05:41:19;;;;;;;53.22;37.92;;;;;;;;;;4963382;28;20046;-74
2022/03/02 05:43:45;;;;;;;55.35;37.78;;;;;;;;;;4981861;28;20125;-74
2022/03/02 05:46:12;;;;;;;55.15;36.83;;;;;;;;;;4979907;28;20046;-73
2022/03/02 05:48:38;;;;;;;50.83;35.30;;;;;;;;;;4984826;28;20046;-74
2022/03/02 05:51:05;;;;;;;51.28;35.88;;;;;;;;;;4980936;28;20128;-74
2022/03/02 05:53:31;;;;;;;54.15;36.28;;;;;;;;;;4995078;28;20104;-74
2022/03/02 05:55:57;;;;;;;49.53;35.45;;;;;;;;;;4983572;28;20088;-74
2022/03/02 05:58:23;;;;;;;52.83;36.20;;;;;;;;;;4980232;28;20041;-74
2022/03/02 06:00:49;;;;;;;54.00;36.22;;;;;;;;;;4980333;28;20038;-74
2022/03/02 06:03:15;;;;;;;51.88;35.85;;;;;;;;;;4985451;28;20041;-74
2022/03/02 06:05:41;;;;;;;53.33;36.47;;;;;;;;;;4981615;28;20046;-73
2022/03/02 06:08:09;;;;;;;51.45;34.38;;;;;;;;;;4985901;28;20054;-73
2022/03/02 06:10:36;;;;;;;55.58;36.60;;;;;;;;;;4985932;28;20045;-73
2022/03/02 06:13:02;;;;;;;52.30;36.15;;;;;;;;;;4986274;28;20038;-74
2022/03/02 06:15:30;;;;;;;51.22;35.55;;;;;;;;;;4995936;28;20034;-74
2022/03/02 06:17:56;;;;;;;54.67;36.15;;;;;;;;;;4980455;28;20034;-72
2022/03/02 06:20:22;;;;;;;51.50;36.40;;;;;;;;;;4983295;28;20077;-73
2022/03/02 06:22:49;;;;;;;50.22;35.28;;;;;;;;;;4983121;28;20046;-73
2022/03/02 06:25:15;;;;;;;51.03;35.38;;;;;;;;;;4978460;28;20057;-73
2022/03/02 06:27:41;;;;;;;56.25;34.85;;;;;;;;;;4986604;28;20080;-73
2022/03/02 06:30:08;;;;;;;51.85;34.17;;;;;;;;;;4987010;28;20038;-74
2022/03/02 06:32:35;;;;;;;54.00;35.67;;;;;;;;;;4985592;28;20037;-71
2022/03/02 06:35:01;;;;;;;53.80;36.58;;;;;;;;;;4985482;28;20045;-72
2022/03/02 06:37:28;;;;;;;51.90;35.42;;;;;;;;;;4978554;28;20129;-73
2022/03/02 06:39:54;;;;;;;51.70;34.10;;;;;;;;;;4998203;28;20046;-74
2022/03/02 06:42:20;;;;;;;52.05;35.25;;;;;;;;;;4984103;28;20062;-73
2022/03/02 06:44:56;;;;;;;48.13;33.90;;;;;;;;;;4977279;28;20049;-74
2022/03/02 06:47:42;;;;;;;48.67;34.13;;;;;;;;;;4981562;28;20042;-73
2022/03/02 06:50:09;;;;;;;52.63;34.15;;;;;;;;;;4978911;28;20046;-73
2022/03/02 06:52:42;;;;;;;50.88;34.53;;;;;;;;;;4976345;28;20056;-74
2022/03/02 06:55:10;;;;;;;49.92;35.03;;;;;;;;;;4975196;28;20065;-74
2022/03/02 06:57:36;;;;;;;51.75;34.78;;;;;;;;;;4989544;28;20038;-74
2022/03/02 07:00:07;;;;;;;52.10;36.25;;;;;;;;;;4972937;28;20043;-73
2022/03/02 07:02:44;;;;;;;50.10;34.63;;;;;;;;;;4989222;28;20046;-73
2022/03/02 07:05:10;;;;;;;50.65;34.75;;;;;;;;;;4972985;28;20097;-74
2022/03/02 07:07:37;;;;;;;49.90;34.85;;;;;;;;;;4977723;28;20053;-74
2022/03/02 07:10:04;;;;;;;48.25;33.47;;;;;;;;;;4996962;28;20046;-74
2022/03/02 07:12:30;;;;;;;51.08;34.75;;;;;;;;;;4978684;28;20038;-74
2022/03/02 07:14:57;;;;;;;51.85;35.22;;;;;;;;;;4972435;28;20113;-73
2022/03/02 07:17:26;;;;;;;54.50;35.60;;;;;;;;;;4970386;28;20046;-71
2022/03/02 07:19:52;;;;;;;50.67;34.63;;;;;;;;;;4972792;28;20050;-73
2022/03/02 07:22:21;;;;;;;53.38;35.13;;;;;;;;;;4992403;28;20038;-74
2022/03/02 07:24:55;;;;;;;47.35;34.17;;;;;;;;;;4981562;28;20038;-73
2022/03/02 07:27:23;;;;;;;51.13;35.13;;;;;;;;;;4975373;28;20042;-73
2022/03/02 07:29:50;;;;;;;49.42;33.70;;;;;;;;;;4977061;28;20089;-73
2022/03/02 07:32:21;;;;;;;52.13;34.92;;;;;;;;;;4979548;28;20041;-74
2022/03/02 07:34:50;;;;;;;47.78;34.70;;;;;;;;;;4977983;28;20065;-73
2022/03/02 07:37:16;;;;;;;49.30;33.97;;;;;;;;;;4973253;28;20120;-73
2022/03/02 07:39:43;;;;;;;47.75;32.88;;;;;;;;;;4972136;28;20042;-73
2022/03/02 07:42:09;;;;;;;47.60;32.47;;;;;;;;;;4953118;28;20041;-73
2022/03/02 07:44:35;;;;;;;43.42;32.85;;;;;;;;;;4979977;28;20054;-73
2022/03/02 07:47:02;;;;;;;48.50;32.53;;;;;;;;;;4974458;28;20089;-73
2022/03/02 07:49:30;;;;;;;49.08;32.47;;;;;;;;;;4972444;28;20066;-73
2022/03/02 07:51:58;;;;;;;43.80;32.10;;;;;;;;;;4971153;28;20040;-74
2022/03/02 07:54:27;;;;;;;44.65;32.50;;;;;;;;;;4972852;28;20081;-73
2022/03/02 07:56:54;;;;;;;46.30;31.88;;;;;;;;;;4956571;28;20038;-73
2022/03/02 07:59:21;;;;;;;47.13;32.47;;;;;;;;;;4992423;28;20038;-72
2022/03/02 08:01:47;;;;;;;48.10;32.60;;;;;;;;;;4956095;28;20092;-73
2022/03/02 08:04:14;;;;;;;43.17;31.02;;;;;;;;;;4970000;28;20053;-72
2022/03/02 08:06:41;;;;;;;47.08;31.50;;;;;;;;;;4972154;28;20042;-72
2022/03/02 08:09:08;;;;;;;46.78;32.05;;;;;;;;;;4957203;28;20068;-72
2022/03/02 08:11:37;;;;;;;49.47;33.72;;;;;;;;;;4992326;28;20049;-72
2022/03/02 08:14:04;;;;;;;51.58;32.65;;;;;;;;;;4959047;28;20042;-72
2022/03/02 08:16:30;;;;;;;47.35;32.90;;;;;;;;;;4962451;28;20076;-72
2022/03/02 08:18:58;;;;;;;47.90;31.70;;;;;;;;;;4968976;28;20042;-73
2022/03/02 08:21:26;;;;;;;47.10;31.95;;;;;;;;;;4967962;28;20046;-72
2022/03/02 08:23:55;;;;;;;47.47;33.05;;;;;;;;;;4988309;28;20043;-72
2022/03/02 08:26:23;;;;;;;43.20;32.35;;;;;;;;;;4963409;28;20046;-72
2022/03/02 08:28:53;;;;;;;46.42;32.38;;;;;;;;;;4971997;28;20089;-73
2022/03/02 08:31:20;;;;;;;46.35;31.42;;;;;;;;;;4985545;28;20093;-72
2022/03/02 08:33:46;;;;;;;45.00;32.90;;;;;;;;;;4974975;28;20062;-72
2022/03/02 08:36:13;;;;;;;43.72;33.25;;;;;;;;;;4974299;28;20205;-72
2022/03/02 08:38:42;;;;;;;48.60;33.08;;;;;;;;;;4973638;28;20045;-72
2022/03/02 08:41:13;;;;;;;46.67;32.85;;;;;;;;;;4968263;28;20046;-73
2022/03/02 08:43:39;;;;;;;44.08;32.33;;;;;;;;;;4984101;28;20045;-72
2022/03/02 08:46:07;;;;;;;42.75;30.63;;;;;;;;;;4987844;28;20047;-72
2022/03/02 08:48:33;;;;;;;47.10;32.17;;;;;;;;;;4965675;28;20104;-72
2022/03/02 08:51:00;;;;;;;43.65;31.88;;;;;;;;;;4968485;28;20050;-72
2022/03/02 08:53:26;;;;;;;47.00;31.83;;;;;;;;;;4967749;28;20118;-72
2022/03/02 08:55:54;;;;;;;42.70;29.83;;;;;;;;;;4961820;28;20102;-72
2022/03/02 08:58:20;;;;;;;44.05;29.83;;;;;;;;;;4975289;28;20046;-72
2022/03/02 09:00:46;;;;;;;38.80;28.33;;;;;;;;;;4966114;28;20057;-72
2022/03/02 09:03:16;;;;;;;42.53;28.80;;;;;;;;;;4971811;28;20053;-72
2022/03/02 09:05:42;;;;;;;38.40;27.33;;;;;;;;;;4959772;28;20484;-73
2022/03/02 09:08:08;;;;;;;39.30;27.08;;;;;;;;;;4998555;28;20042;-74
2022/03/02 09:10:44;;;;;;;34.92;25.42;;;;;;;;;;4962590;28;20046;-72
2022/03/02 09:13:11;;;;;;;39.30;27.50;;;;;;;;;;4969624;28;20043;-74
2022/03/02 09:15:40;;;;;;;38.67;26.95;;;;;;;;;;4994574;28;20128;-72
2022/03/02 09:18:06;;;;;;;37.38;26.92;;;;;;;;;;4993409;28;20038;-72
2022/03/02 09:20:33;;;;;;;35.53;25.55;;;;;;;;;;4981415;28;20057;-71
2022/03/02 09:23:04;;;;;;;33.55;25.50;;;;;;;;;;5002904;28;20049;-73
2022/03/02 09:25:31;;;;;;;35.00;25.95;;;;;;;;;;4992007;28;20047;-72
2022/03/02 09:27:58;;;;;;;35.85;25.48;;;;;;;;;;4969264;28;20100;-71
2022/03/02 09:30:24;;;;;;;34.03;25.35;;;;;;;;;;4967667;28;20137;-71
2022/03/02 09:32:55;;;;;;;38.45;26.15;;;;;;;;;;4960705;28;20047;-72
2022/03/02 09:35:21;;;;;;;33.80;24.52;;;;;;;;;;4987803;28;20153;-71
2022/03/02 09:37:53;;;;;;;35.30;25.25;;;;;;;;;;4963375;28;20049;-73
2022/03/02 09:40:26;;;;;;;35.72;24.35;;;;;;;;;;4993225;28;20042;-74
2022/03/02 09:42:59;;;;;;;34.08;25.25;;;;;;;;;;5000534;28;20069;-72
2022/03/02 09:45:27;;;;;;;31.85;24.92;;;;;;;;;;4983242;28;20073;-76
2022/03/02 09:47:56;;;;;;;35.92;25.52;;;;;;;;;;4983265;28;20042;-73
2022/03/02 09:50:25;;;;;;;34.00;24.70;;;;;;;;;;4977288;28;20042;-71
2022/03/02 09:52:53;;;;;;;33.90;24.65;;;;;;;;;;4965198;28;20046;-71
2022/03/02 09:55:22;;;;;;;35.08;24.98;;;;;;;;;;4963408;28;20050;-75
2022/03/02 09:57:49;;;;;;;38.15;24.95;;;;;;;;;;4999088;28;20069;-74
2022/03/02 10:00:16;;;;;;;31.02;24.23;;;;;;;;;;4970266;28;20047;-71
2022/03/02 10:02:43;;;;;;;33.03;24.92;;;;;;;;;;4946753;28;20038;-71
2022/03/02 10:05:11;;;;;;;30.98;22.95;;;;;;;;;;4982536;28;20050;-71
2022/03/02 10:07:44;;;;;;;31.42;22.35;;;;;;;;;;4969079;28;20407;-72
2022/03/02 10:10:12;;;;;;;28.33;21.35;;;;;;;;;;4962950;28;20420;-74
2022/03/02 10:12:38;;;;;;;28.52;21.77;;;;;;;;;;4970124;28;20074;-71
2022/03/02 10:15:09;;;;;;;30.00;22.60;;;;;;;;;;4963086;28;20038;-72
2022/03/02 10:17:37;;;;;;;30.55;21.10;;;;;;;;;;4977083;28;20042;-72
2022/03/02 10:20:23;;;;;;;30.00;22.15;;;;;;;;;;4977916;28;20050;-72
2022/03/02 10:22:57;;;;;;;28.95;21.45;;;;;;;;;;4973327;28;20524;-72
2022/03/02 10:25:53;;;;;;;29.65;21.58;;;;;;;;;;4970927;28;20048;-72
2022/03/02 10:28:27;;;;;;;28.95;20.33;;;;;;;;;;4964269;28;20093;-72
2022/03/02 10:31:12;;;;;;;29.30;20.02;;;;;;;;;;4992550;28;20065;-72
2022/03/02 10:33:39;;;;;;;27.08;19.25;;;;;;;;;;4982569;28;20047;-72
2022/03/02 10:36:07;;;;;;;24.45;18.13;;;;;;;;;;4976016;28;20069;-72
2022/03/02 10:38:40;;;;;;;27.70;18.63;;;;;;;;;;4971803;28;20093;-72
2022/03/02 10:41:08;;;;;;;28.42;19.13;;;;;;;;;;5000805;28;20057;-72
2022/03/02 10:43:40;;;;;;;23.98;18.35;;;;;;;;;;4991079;28;20043;-72
2022/03/02 10:46:06;;;;;;;26.98;18.40;;;;;;;;;;4973709;28;20051;-72
2022/03/02 10:48:38;;;;;;;24.92;18.52;;;;;;;;;;4973400;28;20045;-73
2022/03/02 10:51:06;;;;;;;23.67;18.13;;;;;;;;;;4973980;28;21505;-73
2022/03/02 10:53:35;;;;;;;28.40;18.92;;;;;;;;;;4968415;28;20317;-73
2022/03/02 10:56:03;;;;;;;24.63;18.38;;;;;;;;;;4978903;28;20049;-73
2022/03/02 10:58:29;;;;;;;25.00;19.08;;;;;;;;;;4990164;28;20084;-72
2022/03/02 11:00:56;;;;;;;24.90;17.85;;;;;;;;;;4984884;28;20085;-73
2022/03/02 11:03:22;;;;;;;24.05;18.85;;;;;;;;;;4989913;28;20049;-73
2022/03/02 11:05:50;;;;;;;24.10;17.90;;;;;;;;;;4975929;28;20089;-73
2022/03/02 11:08:17;;;;;;;24.67;18.30;;;;;;;;;;4976744;28;20052;-73
2022/03/02 11:10:43;;;;;;;23.65;17.83;;;;;;;;;;4990785;28;20038;-73
2022/03/02 11:13:15;;;;;;;28.42;17.85;;;;;;;;;;4967544;28;20057;-73
2022/03/02 11:15:46;;;;;;;28.25;17.92;;;;;;;;;;4973166;28;20138;-73
2022/03/02 11:18:16;;;;;;;24.00;17.42;;;;;;;;;;4962964;28;20038;-73
2022/03/02 11:20:51;;;;;;;22.20;17.73;;;;;;;;;;4970729;28;20042;-73
2022/03/02 11:23:22;;;;;;;23.45;17.08;;;;;;;;;;4970164;28;20088;-73
2022/03/02 11:25:50;;;;;;;22.83;17.83;;;;;;;;;;4971500;28;20042;-73
2022/03/02 11:28:17;;;;;;;24.52;17.92;;;;;;;;;;4969679;28;20066;-73
2022/03/02 11:31:04;;;;;;;22.95;17.67;;;;;;;;;;4990844;28;20050;-73
2022/03/02 11:33:31;;;;;;;23.83;16.85;;;;;;;;;;4970356;28;20041;-73
2022/03/02 11:36:00;;;;;;;26.63;17.25;;;;;;;;;;4968563;28;20069;-73
2022/03/02 11:38:31;;;;;;;20.80;16.77;;;;;;;;;;4974949;28;20042;-72
2022/03/02 11:40:57;;;;;;;25.55;17.38;;;;;;;;;;4979350;28;20406;-73
2022/03/02 11:43:28;;;;;;;28.05;17.63;;;;;;;;;;4976471;28;20038;-73
2022/03/02 11:45:56;;;;;;;22.75;17.13;;;;;;;;;;4973866;28;20045;-73
2022/03/02 11:48:22;;;;;;;21.08;17.52;;;;;;;;;;4985061;28;20038;-73
2022/03/02 11:51:07;;;;;;;22.67;17.15;;;;;;;;;;4974394;28;20035;-73
2022/03/02 11:53:36;;;;;;;24.48;17.15;;;;;;;;;;4971512;28;20034;-73
2022/03/02 11:56:03;;;;;;;24.95;17.35;;;;;;;;;;4969735;28;20074;-73
2022/03/02 11:58:49;;;;;;;22.90;17.10;;;;;;;;;;4967999;28;20066;-73
2022/03/02 12:01:16;;;;;;;25.45;17.40;;;;;;;;;;4971559;28;20057;-73
2022/03/02 12:03:54;;;;;;;21.17;16.92;;;;;;;;;;4974319;28;20125;-73
2022/03/02 12:06:20;;;;;;;24.40;17.15;;;;;;;;;;4970758;28;20098;-72
2022/03/02 12:08:50;;;;;;;20.23;17.17;;;;;;;;;;4963293;28;20049;-73
2022/03/02 12:11:22;;;;;;;19.75;16.40;;;;;;;;;;4968916;28;20043;-73
2022/03/02 12:14:01;;;;;;;23.40;17.80;;;;;;;;;;4959843;28;20046;-73
2022/03/02 12:16:41;;;;;;;20.40;16.52;;;;;;;;;;4992406;28;20285;-73
2022/03/02 12:19:18;;;;;;;20.00;16.40;;;;;;;;;;4971813;28;20073;-73
2022/03/02 12:21:44;;;;;;;22.40;17.08;;;;;;;;;;4962445;28;20398;-73
2022/03/02 12:24:12;;;;;;;19.75;16.63;;;;;;;;;;4974687;28;20488;-72
2022/03/02 12:26:46;;;;;;;20.90;16.45;;;;;;;;;;4975366;28;20057;-73
2022/03/02 12:29:12;;;;;;;21.63;17.48;;;;;;;;;;4982809;28;20105;-73
2022/03/02 12:31:38;;;;;;;23.23;17.75;;;;;;;;;;4981260;28;20100;-73
2022/03/02 12:34:12;;;;;;;19.17;16.25;;;;;;;;;;4974369;28;20035;-73
2022/03/02 12:36:39;;;;;;;19.52;15.90;;;;;;;;;;4976077;28;20556;-72
2022/03/02 12:39:05;;;;;;;24.80;16.95;;;;;;;;;;4963964;28;20069;-73
2022/03/02 12:41:31;;;;;;;22.60;16.38;;;;;;;;;;4973061;28;20500;-73
2022/03/02 12:43:57;;;;;;;20.80;16.63;;;;;;;;;;4973981;28;20504;-72
2022/03/02 12:46:24;;;;;;;22.40;17.15;;;;;;;;;;4969805;28;20408;-73
2022/03/02 12:48:51;;;;;;;23.58;17.00;;;;;;;;;;4991210;28;20417;-73
2022/03/02 12:51:17;;;;;;;21.52;16.40;;;;;;;;;;4968158;28;20381;-73
2022/03/02 12:53:44;;;;;;;21.15;16.02;;;;;;;;;;4988752;28;20362;-73
2022/03/02 12:56:10;;;;;;;20.67;16.77;;;;;;;;;;4989220;28;20116;-73
2022/03/02 12:58:40;;;;;;;19.20;16.73;;;;;;;;;;4954386;28;20046;-72
2022/03/02 13:01:08;;;;;;;21.20;16.30;;;;;;;;;;4970801;28;20400;-72
2022/03/02 13:03:37;;;;;;;22.52;16.67;;;;;;;;;;4989853;28;20074;-73
2022/03/02 13:06:05;;;;;;;20.73;16.40;;;;;;;;;;4978225;28;20109;-72
2022/03/02 13:08:43;;;;;;;21.67;16.80;;;;;;;;;;4977714;28;20051;-72
2022/03/02 13:11:25;;;;;;;19.83;16.45;;;;;;;;;;4966172;28;20109;-72
2022/03/02 13:13:51;;;;;;;21.45;16.30;;;;;;;;;;4990315;28;20092;-73
2022/03/02 13:16:17;;;;;;;21.20;16.13;;;;;;;;;;4983560;28;20050;-72
2022/03/02 13:18:43;;;;;;;22.00;15.50;;;;;;;;;;4992009;28;20099;-73
2022/03/02 13:21:17;;;;;;;20.85;16.30;;;;;;;;;;4970986;28;20054;-72
2022/03/02 13:24:01;;;;;;;19.73;15.55;;;;;;;;;;4966758;28;20074;-74
2022/03/02 13:26:27;;;;;;;19.88;15.95;;;;;;;;;;4978709;28;20053;-72
2022/03/02 13:29:01;;;;;;;18.85;15.93;;;;;;;;;;4968279;28;20050;-72
2022/03/02 13:31:27;;;;;;;19.90;16.17;;;;;;;;;;4967634;28;20093;-71
2022/03/02 13:33:55;;;;;;;21.75;15.82;;;;;;;;;;4966419;28;20041;-71
2022/03/02 13:36:40;;;;;;;19.55;15.68;;;;;;;;;;4958269;28;20129;-74
2022/03/02 13:39:10;;;;;;;20.63;16.05;;;;;;;;;;4965430;28;20101;-74
2022/03/02 13:41:41;;;;;;;18.02;15.50;;;;;;;;;;4974532;28;20042;-73
2022/03/02 13:44:20;;;;;;;19.15;15.70;;;;;;;;;;4972144;28;20053;-73
2022/03/02 13:47:06;;;;;;;18.85;15.30;;;;;;;;;;4980523;28;20078;-76
2022/03/02 13:49:58;;;;;;;19.50;16.92;;;;;;;;;;4976214;28;20059;-74
2022/03/02 13:52:26;;;;;;;19.65;16.63;;;;;;;;;;4978929;28;20055;-72
2022/03/02 13:54:53;;;;;;;19.88;16.10;;;;;;;;;;4982004;28;20047;-72
2022/03/02 13:57:24;;;;;;;18.25;15.35;;;;;;;;;;4997838;28;20043;-72
2022/03/02 14:00:10;;;;;;;20.73;16.25;;;;;;;;;;4974742;28;20046;-72
2022/03/02 14:02:36;;;;;;;19.30;16.00;;;;;;;;;;4991489;28;20042;-73
2022/03/02 14:05:02;;;;;;;21.58;16.70;;;;;;;;;;5000907;28;20057;-74
2022/03/02 14:07:30;;;;;;;18.88;16.15;;;;;;;;;;4988262;28;20042;-75
2022/03/02 14:10:04;;;;;;;18.98;16.40;;;;;;;;;;4981525;28;20421;-73
2022/03/02 14:12:30;;;;;;;18.88;15.38;;;;;;;;;;4976341;28;20057;-73
2022/03/02 14:15:08;;;;;;;18.20;15.63;;;;;;;;;;4970730;28;20259;-73
2022/03/02 14:17:35;;;;;;;20.27;15.30;;;;;;;;;;4968338;28;20042;-73
2022/03/02 14:20:03;;;;;;;17.55;14.63;;;;;;;;;;4972814;28;20134;-73
2022/03/02 14:22:30;;;;;;;16.50;14.60;;;;;;;;;;4991904;28;20085;-73
2022/03/02 14:24:56;;;;;;;16.83;15.02;;;;;;;;;;4973561;28;20140;-73